createdAt,value
2023-02-17T00:02:51.623Z,7.65
2023-02-17T00:05:50.861Z,7.66
2023-02-17T00:08:48.725Z,7.65
2023-02-17T00:11:46.154Z,7.64
2023-02-17T00:14:43.982Z,7.63
2023-02-17T00:17:41.419Z,7.61
2023-02-17T00:20:39.217Z,7.59
2023-02-17T00:23:36.692Z,7.57
2023-02-17T00:26:34.313Z,7.53
2023-02-17T00:29:31.769Z,7.47
2023-02-17T00:32:29.396Z,7.41
2023-02-17T00:35:27.230Z,7.35
2023-02-17T00:38:24.692Z,7.27
2023-02-17T00:41:22.553Z,7.18
2023-02-17T00:44:20.056Z,7.10
2023-02-17T00:47:17.877Z,7.00
2023-02-17T00:50:15.348Z,6.91
2023-02-17T00:53:13.048Z,6.82
2023-02-17T00:56:10.482Z,6.71
2023-02-17T00:59:08.238Z,6.58
2023-02-17T01:02:05.720Z,6.50
2023-02-17T01:05:03.527Z,6.39
2023-02-17T01:08:01.012Z,6.29
2023-02-17T01:10:58.643Z,6.20
2023-02-17T01:13:56.099Z,6.10
2023-02-17T01:16:53.824Z,6.02
2023-02-17T01:19:51.269Z,5.94
2023-02-17T01:22:49.362Z,5.87
2023-02-17T01:25:46.834Z,5.81
2023-02-17T01:28:44.559Z,5.77
2023-02-17T01:31:42.269Z,5.74
2023-02-17T01:34:40.005Z,5.72
2023-02-17T01:37:37.717Z,5.71
2023-02-17T01:40:35.176Z,5.71
2023-02-17T01:43:33.002Z,5.72
2023-02-17T01:46:30.646Z,5.73
2023-02-17T01:49:28.136Z,5.75
2023-02-17T01:52:25.899Z,5.79
2023-02-17T01:55:23.348Z,5.84
2023-02-17T01:58:21.141Z,5.90
2023-02-17T02:01:19.417Z,6.00
2023-02-17T02:04:17.159Z,6.07
2023-02-17T02:07:14.936Z,6.13
2023-02-17T02:10:12.423Z,6.15
2023-02-17T02:13:10.249Z,6.12
2023-02-17T02:16:08.126Z,6.07
2023-02-17T02:19:06.011Z,6.02
2023-02-17T02:22:03.455Z,5.98
2023-02-17T02:25:01.133Z,5.92
2023-02-17T02:27:58.583Z,5.87
2023-02-17T02:30:56.474Z,5.82
2023-02-17T02:33:54.060Z,5.78
2023-02-17T02:36:51.772Z,5.73
2023-02-17T02:39:49.560Z,5.68
2023-02-17T02:42:47.036Z,5.65
2023-02-17T02:45:44.760Z,5.61
2023-02-17T02:48:42.266Z,5.58
2023-02-17T02:51:40.020Z,5.55
2023-02-17T02:54:37.858Z,5.53
2023-02-17T02:57:35.314Z,5.55
2023-02-17T03:00:33.100Z,5.58
2023-02-17T03:03:30.541Z,5.60
2023-02-17T03:06:28.324Z,5.62
2023-02-17T03:09:25.787Z,5.63
2023-02-17T03:12:23.577Z,5.65
2023-02-17T03:15:21.022Z,5.65
2023-02-17T03:18:18.724Z,5.66
2023-02-17T03:21:16.212Z,5.68
2023-02-17T03:24:14.003Z,5.70
2023-02-17T03:27:11.475Z,5.73
2023-02-17T03:30:09.993Z,5.74
2023-02-17T03:33:07.825Z,5.76
2023-02-17T03:36:05.556Z,5.78
2023-02-17T03:39:03.557Z,5.81
2023-02-17T03:42:01.020Z,5.85
2023-02-17T03:44:58.684Z,5.92
2023-02-17T03:47:56.242Z,6.11
2023-02-17T03:50:54.008Z,6.33
2023-02-17T03:53:51.920Z,6.59
2023-02-17T03:56:49.534Z,6.87
2023-02-17T03:59:47.213Z,7.12
2023-02-17T04:02:44.678Z,7.43
2023-02-17T04:05:42.441Z,7.64
2023-02-17T04:08:39.928Z,7.83
2023-02-17T04:11:37.686Z,7.98
2023-02-17T04:14:35.166Z,8.13
2023-02-17T04:17:32.913Z,8.26
2023-02-17T04:20:30.360Z,8.39
2023-02-17T04:23:28.225Z,8.52
2023-02-17T04:26:25.655Z,8.66
2023-02-17T04:29:23.445Z,8.77
2023-02-17T04:32:21.067Z,8.86
2023-02-17T04:35:18.567Z,8.94
2023-02-17T04:38:16.237Z,9.02
2023-02-17T04:41:13.683Z,9.08
2023-02-17T04:44:11.317Z,9.15
2023-02-17T04:47:08.747Z,9.21
2023-02-17T04:50:06.500Z,9.26
2023-02-17T04:53:03.945Z,9.29
2023-02-17T04:56:01.589Z,9.32
2023-02-17T04:58:59.381Z,9.35
2023-02-17T05:01:56.854Z,9.37
2023-02-17T05:04:54.754Z,9.39
2023-02-17T05:07:52.248Z,9.38
2023-02-17T05:10:49.846Z,9.38
2023-02-17T05:13:47.292Z,9.38
2023-02-17T05:16:44.991Z,9.37
2023-02-17T05:19:42.438Z,9.39
2023-02-17T05:22:40.195Z,9.41
2023-02-17T05:25:37.691Z,9.41
2023-02-17T05:28:35.421Z,9.39
2023-02-17T05:31:33.165Z,9.37
2023-02-17T05:34:30.783Z,9.36
2023-02-17T05:37:28.471Z,9.33
2023-02-17T05:40:25.940Z,9.30
2023-02-17T05:43:23.566Z,9.28
2023-02-17T05:46:21.052Z,9.25
2023-02-17T05:49:18.853Z,9.25
2023-02-17T05:52:16.970Z,9.24
2023-02-17T05:55:14.634Z,9.26
2023-02-17T05:58:12.283Z,9.28
2023-02-17T06:01:09.746Z,9.30
2023-02-17T06:04:07.614Z,9.31
2023-02-17T06:07:05.097Z,9.33
2023-02-17T06:10:02.928Z,9.36
2023-02-17T06:13:00.395Z,9.39
2023-02-17T06:15:58.001Z,9.44
2023-02-17T06:18:55.497Z,9.48
2023-02-17T06:21:53.301Z,9.53
2023-02-17T06:24:50.782Z,9.57
2023-02-17T06:27:48.435Z,9.62
2023-02-17T06:30:46.133Z,9.65
2023-02-17T06:33:43.604Z,9.68
2023-02-17T06:36:41.407Z,9.72
2023-02-17T06:39:38.907Z,9.75
2023-02-17T06:42:36.733Z,9.79
2023-02-17T06:45:34.250Z,9.81
2023-02-17T06:48:33.358Z,9.84
2023-02-17T06:51:30.819Z,9.86
2023-02-17T06:54:28.612Z,9.88
2023-02-17T06:57:26.364Z,9.88
2023-02-17T07:00:23.813Z,9.89
2023-02-17T07:03:21.501Z,9.89
2023-02-17T07:06:18.938Z,9.89
2023-02-17T07:09:16.822Z,9.91
2023-02-17T07:12:14.282Z,9.96
2023-02-17T07:15:12.625Z,10.01
2023-02-17T07:18:10.166Z,10.08
2023-02-17T07:21:07.906Z,10.17
2023-02-17T07:24:05.399Z,10.24
2023-02-17T07:27:03.131Z,10.31
2023-02-17T07:30:00.673Z,10.37
2023-02-17T07:32:58.461Z,10.40
2023-02-17T07:35:55.937Z,10.45
2023-02-17T07:38:53.604Z,10.50
2023-02-17T07:41:51.669Z,10.52
2023-02-17T07:44:49.129Z,10.55
2023-02-17T07:47:47.379Z,10.62
2023-02-17T07:50:44.856Z,10.71
2023-02-17T07:53:42.598Z,10.82
2023-02-17T07:56:40.076Z,10.96
2023-02-17T07:59:38.044Z,11.10
2023-02-17T08:02:35.806Z,11.23
2023-02-17T08:05:33.243Z,11.35
2023-02-17T08:08:48.645Z,11.45
2023-02-17T08:12:03.801Z,11.50
2023-02-17T08:15:02.856Z,11.53
2023-02-17T08:18:00.940Z,11.60
2023-02-17T08:20:58.620Z,11.71
2023-02-17T08:23:56.098Z,11.86
2023-02-17T08:26:53.784Z,12.04
2023-02-17T08:29:51.477Z,12.22
2023-02-17T08:32:49.753Z,12.35
2023-02-17T08:35:47.395Z,12.50
2023-02-17T08:38:48.702Z,12.67
2023-02-17T08:41:46.969Z,12.82
2023-02-17T08:44:44.464Z,12.95
2023-02-17T08:47:44.106Z,13.05
2023-02-17T08:50:41.610Z,13.13
2023-02-17T08:53:39.304Z,13.19
2023-02-17T08:56:36.859Z,13.21
2023-02-17T08:59:34.565Z,13.21
2023-02-17T09:02:32.246Z,13.19
2023-02-17T09:05:29.771Z,13.19
2023-02-17T09:08:27.456Z,13.17
2023-02-17T09:11:24.973Z,13.16
2023-02-17T09:14:24.218Z,13.17
2023-02-17T09:17:22.066Z,13.21
2023-02-17T09:20:24.871Z,13.28
2023-02-17T09:23:23.265Z,13.38
2023-02-17T09:26:20.799Z,13.51
2023-02-17T09:29:19.076Z,13.62
2023-02-17T09:32:16.725Z,13.75
2023-02-17T09:35:14.790Z,13.88
2023-02-17T09:38:12.269Z,13.97
2023-02-17T09:41:10.208Z,14.03
2023-02-17T09:44:08.230Z,14.02
2023-02-17T09:47:06.638Z,13.94
2023-02-17T09:50:04.158Z,13.84
2023-02-17T09:53:02.041Z,13.73
2023-02-17T09:55:59.544Z,13.57
2023-02-17T09:58:57.477Z,13.40
2023-02-17T10:01:54.985Z,13.22
2023-02-17T10:04:53.313Z,13.09
2023-02-17T10:07:50.804Z,12.97
2023-02-17T10:10:48.809Z,12.87
2023-02-17T10:13:46.649Z,12.81
2023-02-17T10:16:44.242Z,12.75
2023-02-17T10:19:42.421Z,12.71
2023-02-17T10:22:39.882Z,12.67
2023-02-17T10:25:37.884Z,12.63
2023-02-17T10:28:35.400Z,12.59
2023-02-17T10:31:33.449Z,12.55
2023-02-17T10:34:31.018Z,12.52
2023-02-17T10:37:28.953Z,12.53
2023-02-17T10:40:26.545Z,12.54
2023-02-17T10:43:24.365Z,12.56
2023-02-17T10:46:21.849Z,12.57
2023-02-17T10:49:19.725Z,12.58
2023-02-17T10:52:17.186Z,12.58
2023-02-17T10:55:22.919Z,12.59
2023-02-17T10:58:20.788Z,12.59
2023-02-17T11:01:18.665Z,12.59
2023-02-17T11:04:16.596Z,12.58
2023-02-17T11:07:14.150Z,12.57
2023-02-17T11:10:13.126Z,12.59
2023-02-17T11:13:10.701Z,12.61
2023-02-17T11:16:09.020Z,12.62
2023-02-17T11:19:07.185Z,12.64
2023-02-17T11:22:05.288Z,12.65
2023-02-17T11:25:04.093Z,12.67
2023-02-17T11:28:01.954Z,12.69
2023-02-17T11:30:59.428Z,12.71
2023-02-17T11:33:57.373Z,12.74
2023-02-17T11:36:54.808Z,12.75
2023-02-17T11:39:54.160Z,12.77
2023-02-17T11:42:51.653Z,12.78
2023-02-17T11:45:49.475Z,12.80
2023-02-17T11:48:46.988Z,12.82
2023-02-17T11:51:44.813Z,12.86
2023-02-17T11:54:42.248Z,12.90
2023-02-17T11:57:40.120Z,12.92
2023-02-17T12:00:37.999Z,12.96
2023-02-17T12:03:36.838Z,12.98
2023-02-17T12:06:34.873Z,12.99
2023-02-17T12:09:32.829Z,12.99
2023-02-17T12:12:30.719Z,12.99
2023-02-17T12:15:28.154Z,12.97
2023-02-17T12:18:26.127Z,12.94
2023-02-17T12:21:23.589Z,12.93
2023-02-17T12:24:21.560Z,12.93
2023-02-17T12:27:19.021Z,12.95
2023-02-17T12:30:17.067Z,12.96
2023-02-17T12:33:14.646Z,12.98
2023-02-17T12:36:12.838Z,13.00
2023-02-17T12:39:10.330Z,13.03
2023-02-17T12:42:08.399Z,13.05
2023-02-17T12:45:05.866Z,13.07
2023-02-17T12:48:03.813Z,13.07
2023-02-17T12:51:01.243Z,13.07
2023-02-17T12:53:59.232Z,13.08
2023-02-17T12:56:57.212Z,13.11
2023-02-17T12:59:54.704Z,13.15
2023-02-17T13:02:52.637Z,13.18
2023-02-17T13:05:50.132Z,13.23
2023-02-17T13:08:48.006Z,13.27
2023-02-17T13:11:45.835Z,13.29
2023-02-17T13:14:43.745Z,13.32
2023-02-17T13:17:41.183Z,13.35
2023-02-17T13:20:39.137Z,13.37
2023-02-17T13:23:36.630Z,13.39
2023-02-17T13:26:34.472Z,13.40
2023-02-17T13:29:32.369Z,13.40
2023-02-17T13:32:29.833Z,13.38
2023-02-17T13:35:27.659Z,13.35
2023-02-17T13:38:25.087Z,13.34
2023-02-17T13:41:23.008Z,13.33
2023-02-17T13:44:20.486Z,13.35
2023-02-17T13:47:18.321Z,13.36
2023-02-17T13:50:15.776Z,13.37
2023-02-17T13:53:13.612Z,13.39
2023-02-17T13:56:11.106Z,13.40
2023-02-17T13:59:09.537Z,13.42
2023-02-17T14:02:10.341Z,13.44
2023-02-17T14:05:07.822Z,13.45
2023-02-17T14:08:05.878Z,13.45
2023-02-17T14:11:03.502Z,13.44
2023-02-17T14:14:01.603Z,13.44
2023-02-17T14:16:59.110Z,13.42
2023-02-17T14:19:57.048Z,13.41
2023-02-17T14:23:03.734Z,13.40
2023-02-17T14:26:02.296Z,13.39
2023-02-17T14:28:59.757Z,13.40
2023-02-17T14:31:57.754Z,13.42
2023-02-17T14:34:55.426Z,13.46
2023-02-17T14:37:53.638Z,13.49
2023-02-17T14:40:52.839Z,13.52
2023-02-17T14:43:50.852Z,13.57
2023-02-17T14:46:48.705Z,13.61
2023-02-17T14:49:46.288Z,13.64
2023-02-17T14:52:44.333Z,13.68
2023-02-17T14:55:41.828Z,13.71
2023-02-17T14:58:40.111Z,13.74
2023-02-17T15:01:37.617Z,13.77
2023-02-17T15:04:35.838Z,13.82
2023-02-17T15:07:36.605Z,13.87
2023-02-17T15:10:36.396Z,13.92
2023-02-17T15:13:33.862Z,13.98
2023-02-17T15:16:31.981Z,14.01
2023-02-17T15:19:29.470Z,14.03
2023-02-17T15:22:27.452Z,14.03
2023-02-17T15:25:26.047Z,14.02
2023-02-17T15:28:23.925Z,14.01
2023-02-17T15:31:21.966Z,14.00
2023-02-17T15:34:19.562Z,13.99
2023-02-17T15:37:17.557Z,13.99
2023-02-17T15:40:15.312Z,13.98
2023-02-17T15:43:14.120Z,13.97
2023-02-17T15:46:12.262Z,13.97
2023-02-17T15:49:11.119Z,13.98
2023-02-17T15:52:11.163Z,14.00
2023-02-17T15:55:09.049Z,14.00
2023-02-17T15:58:06.908Z,14.01
2023-02-17T16:01:08.212Z,14.00
2023-02-17T16:04:06.444Z,13.99
2023-02-17T16:07:04.347Z,13.98
2023-02-17T16:10:02.789Z,13.98
2023-02-17T16:13:01.265Z,13.97
2023-02-17T16:16:00.285Z,13.96
2023-02-17T16:19:01.579Z,13.95
2023-02-17T16:22:02.469Z,13.94
2023-02-17T16:25:00.497Z,13.94
2023-02-17T16:28:01.471Z,13.93
2023-02-17T16:31:00.557Z,13.92
2023-02-17T16:34:00.490Z,13.91
2023-02-17T16:36:58.626Z,13.90
2023-02-17T16:39:56.369Z,13.90
2023-02-17T16:42:55.039Z,13.88
2023-02-17T16:45:54.317Z,13.87
2023-02-17T16:48:52.261Z,13.85
2023-02-17T16:51:50.685Z,13.83
2023-02-17T16:54:48.750Z,13.82
2023-02-17T16:57:49.027Z,13.80
2023-02-17T17:00:47.161Z,13.77
2023-02-17T17:03:45.954Z,13.76
2023-02-17T17:06:44.204Z,13.72
2023-02-17T17:09:45.285Z,13.70
2023-02-17T17:12:48.258Z,13.68
2023-02-17T17:15:46.196Z,13.66
2023-02-17T17:18:46.438Z,13.64
2023-02-17T17:21:44.436Z,13.61
2023-02-17T17:24:43.003Z,13.59
2023-02-17T17:27:42.114Z,13.57
2023-02-17T17:30:40.797Z,13.55
2023-02-17T17:33:40.502Z,13.54
2023-02-17T17:36:39.098Z,13.52
2023-02-17T17:39:37.640Z,13.51
2023-02-17T17:42:37.981Z,13.48
2023-02-17T17:45:36.834Z,13.46
2023-02-17T17:48:34.772Z,13.46
2023-02-17T17:51:33.715Z,13.44
2023-02-17T17:54:32.866Z,13.43
2023-02-17T17:57:30.873Z,13.43
2023-02-17T18:00:30.048Z,13.43
2023-02-17T18:03:29.137Z,13.43
2023-02-17T18:06:28.447Z,13.43
2023-02-17T18:09:31.581Z,13.42
2023-02-17T18:12:30.944Z,13.41
2023-02-17T18:15:30.592Z,13.40
2023-02-17T18:18:31.373Z,13.39
2023-02-17T18:21:29.665Z,13.37
2023-02-17T18:24:29.291Z,13.39
2023-02-17T18:27:26.819Z,13.58
2023-02-17T18:30:33.137Z,13.61
2023-02-17T18:33:31.790Z,13.58
2023-02-17T18:36:32.104Z,13.57
2023-02-17T18:39:31.622Z,13.56
2023-02-17T18:42:31.175Z,13.57
2023-02-17T18:45:32.196Z,13.59
2023-02-17T18:48:32.403Z,13.61
2023-02-17T18:51:30.783Z,13.62
2023-02-17T18:54:28.934Z,13.64
2023-02-17T18:57:27.742Z,13.66
2023-02-17T19:00:27.459Z,13.67
2023-02-17T19:03:25.628Z,13.68
2023-02-17T19:06:24.429Z,13.68
2023-02-17T19:09:23.829Z,13.67
2023-02-17T19:12:24.577Z,13.67
2023-02-17T19:15:23.261Z,13.66
2023-02-17T19:18:22.079Z,13.65
2023-02-17T19:21:21.461Z,13.64
2023-02-17T19:24:19.618Z,13.62
2023-02-17T19:27:18.320Z,13.61
2023-02-17T19:30:18.243Z,13.58
2023-02-17T19:33:16.258Z,13.57
2023-02-17T19:36:15.212Z,13.57
2023-02-17T19:39:19.524Z,13.58
2023-02-17T19:42:17.580Z,13.59
2023-02-17T19:45:16.595Z,13.62
2023-02-17T19:48:15.282Z,13.65
2023-02-17T19:51:14.133Z,13.68
2023-02-17T19:54:15.882Z,13.71
2023-02-17T19:57:14.959Z,13.74
2023-02-17T20:00:13.916Z,13.76
2023-02-17T20:03:13.666Z,13.78
2023-02-17T20:06:12.741Z,13.78
2023-02-17T20:09:12.865Z,13.78
2023-02-17T20:12:11.768Z,13.80
2023-02-17T20:15:10.744Z,13.81
2023-02-17T20:18:09.034Z,13.81
2023-02-17T20:21:07.546Z,13.81
2023-02-17T20:24:09.845Z,13.81
2023-02-17T20:27:08.793Z,13.81
2023-02-17T20:30:09.367Z,13.81
2023-02-17T20:33:10.994Z,13.80
2023-02-17T20:36:10.129Z,13.79
2023-02-17T20:39:09.375Z,13.77
2023-02-17T20:42:08.480Z,13.75
2023-02-17T20:45:07.586Z,13.72
2023-02-17T20:48:06.573Z,13.70
2023-02-17T20:51:06.152Z,13.66
2023-02-17T20:54:04.461Z,13.63
2023-02-17T20:57:03.641Z,13.61
2023-02-17T21:00:11.277Z,13.59
2023-02-17T21:03:10.414Z,13.56
2023-02-17T21:06:09.259Z,13.53
2023-02-17T21:09:07.945Z,13.50
2023-02-17T21:12:06.371Z,13.45
2023-02-17T21:15:03.856Z,13.39
2023-02-17T21:18:02.577Z,13.34
2023-02-17T21:21:00.561Z,13.29
2023-02-17T21:23:58.938Z,13.25
2023-02-17T21:27:00.099Z,13.22
2023-02-17T21:29:58.566Z,13.20
2023-02-17T21:32:57.001Z,13.19
2023-02-17T21:35:55.830Z,13.18
2023-02-17T21:38:53.703Z,13.21
2023-02-17T21:41:51.330Z,13.23
2023-02-17T21:44:56.009Z,13.25
2023-02-17T21:47:53.543Z,13.28
2023-02-17T21:50:51.522Z,13.30
2023-02-17T21:53:49.641Z,13.33
2023-02-17T21:56:47.202Z,13.34
2023-02-17T21:59:44.977Z,13.36
2023-02-17T22:02:44.238Z,13.38
2023-02-17T22:05:43.278Z,13.39
2023-02-17T22:08:40.858Z,13.39
2023-02-17T22:11:38.665Z,13.40
2023-02-17T22:14:36.347Z,13.40
2023-02-17T22:17:33.881Z,13.38
2023-02-17T22:20:31.544Z,13.37
2023-02-17T22:23:29.018Z,13.35
2023-02-17T22:26:26.650Z,13.32
2023-02-17T22:29:24.125Z,13.30
2023-02-17T22:32:21.845Z,13.30
2023-02-17T22:35:21.275Z,13.29
2023-02-17T22:38:18.769Z,13.29
2023-02-17T22:41:16.585Z,13.29
2023-02-17T22:44:14.048Z,13.29
2023-02-17T22:47:11.684Z,13.30
2023-02-17T22:50:09.141Z,13.30
2023-02-17T22:53:06.891Z,13.32
2023-02-17T22:56:04.438Z,13.33
2023-02-17T22:59:04.280Z,13.34
2023-02-17T23:02:02.048Z,13.34
2023-02-17T23:04:59.525Z,13.35
2023-02-17T23:07:57.155Z,13.37
2023-02-17T23:10:54.611Z,13.38
2023-02-17T23:13:52.239Z,13.39
2023-02-17T23:16:49.933Z,13.40
2023-02-17T23:19:47.743Z,13.43
2023-02-17T23:22:45.420Z,13.94
2023-02-17T23:25:42.868Z,14.41
2023-02-17T23:28:40.619Z,14.75
2023-02-17T23:31:38.121Z,14.67
2023-02-17T23:34:35.947Z,15.60
2023-02-17T23:37:33.385Z,17.07
2023-02-17T23:40:31.165Z,17.43
2023-02-17T23:43:28.941Z,16.59
2023-02-17T23:46:26.462Z,15.77
2023-02-17T23:49:24.154Z,15.19
2023-02-17T23:52:21.578Z,14.75
2023-02-17T23:55:19.351Z,14.40
2023-02-17T23:58:17.904Z,14.14
